createdAt,value
2019-01-29T00:00:40.660Z,0.00
2019-01-29T00:01:40.622Z,0.00
2019-01-29T00:02:40.614Z,0.00
2019-01-29T00:03:40.616Z,0.00
2019-01-29T00:04:40.602Z,0.00
2019-01-29T00:05:40.594Z,0.00
2019-01-29T00:06:40.563Z,0.00
2019-01-29T00:07:40.555Z,0.00
2019-01-29T00:08:40.559Z,0.00
2019-01-29T00:09:40.530Z,0.00
2019-01-29T00:10:40.524Z,0.00
2019-01-29T00:11:40.516Z,0.00
2019-01-29T00:12:40.499Z,0.00
2019-01-29T00:13:40.513Z,0.00
2019-01-29T00:14:40.483Z,4.00
2019-01-29T00:15:40.475Z,0.00
2019-01-29T00:16:40.463Z,0.00
2019-01-29T00:17:40.440Z,0.00
2019-01-29T00:18:40.460Z,0.00
2019-01-29T00:19:40.422Z,0.00
2019-01-29T00:20:40.419Z,0.00
2019-01-29T00:21:40.402Z,0.00
2019-01-29T00:22:40.390Z,0.00
2019-01-29T00:23:40.406Z,0.00
2019-01-29T00:24:40.369Z,0.00
2019-01-29T00:25:40.356Z,0.00
2019-01-29T00:26:40.353Z,0.00
2019-01-29T00:27:40.330Z,0.00
2019-01-29T00:28:40.336Z,0.00
2019-01-29T00:29:40.307Z,0.00
2019-01-29T00:30:40.302Z,0.00
2019-01-29T00:31:40.291Z,0.00
2019-01-29T00:32:40.278Z,0.00
2019-01-29T00:33:40.283Z,0.00
2019-01-29T00:34:40.262Z,0.00
2019-01-29T00:35:40.243Z,0.00
2019-01-29T00:36:40.232Z,0.00
2019-01-29T00:37:40.239Z,0.00
2019-01-29T00:38:40.214Z,0.00
2019-01-29T00:39:40.200Z,0.00
2019-01-29T00:40:40.183Z,0.00
2019-01-29T00:41:40.174Z,0.00
2019-01-29T00:42:40.180Z,0.00
2019-01-29T00:43:40.168Z,0.00
2019-01-29T00:44:40.161Z,0.00
2019-01-29T00:45:40.134Z,0.00
2019-01-29T00:46:40.130Z,0.00
2019-01-29T00:47:40.115Z,0.00
2019-01-29T00:48:40.107Z,0.00
2019-01-29T00:49:40.111Z,0.00
2019-01-29T00:50:40.079Z,0.00
2019-01-29T00:51:40.061Z,0.00
2019-01-29T00:52:42.042Z,0.00
2019-01-29T00:53:40.044Z,0.00
2019-01-29T00:54:40.095Z,0.00
2019-01-29T00:55:40.018Z,0.00
2019-01-29T00:56:40.008Z,0.00
2019-01-29T00:57:40.002Z,0.00
2019-01-29T00:58:39.989Z,0.00
2019-01-29T00:59:40.013Z,0.00
2019-01-29T01:00:39.970Z,0.00
2019-01-29T01:01:39.952Z,0.00
2019-01-29T01:02:40.018Z,0.00
2019-01-29T01:03:39.929Z,0.00
2019-01-29T01:04:39.933Z,0.00
2019-01-29T01:05:39.921Z,0.00
2019-01-29T01:06:39.897Z,0.00
2019-01-29T01:07:39.890Z,0.00
2019-01-29T01:08:39.876Z,0.00
2019-01-29T01:09:39.880Z,0.00
2019-01-29T01:10:39.850Z,0.00
2019-01-29T01:11:39.850Z,0.00
2019-01-29T01:12:39.826Z,0.00
2019-01-29T01:13:39.819Z,0.00
2019-01-29T01:14:39.824Z,0.00
2019-01-29T01:15:39.805Z,0.00
2019-01-29T01:16:39.794Z,0.00
2019-01-29T01:17:39.775Z,0.00
2019-01-29T01:18:39.761Z,0.00
2019-01-29T01:19:39.769Z,0.00
2019-01-29T01:20:39.752Z,0.00
2019-01-29T01:21:39.737Z,0.00
2019-01-29T01:22:39.721Z,0.00
2019-01-29T01:23:39.720Z,0.00
2019-01-29T01:24:39.716Z,0.00
2019-01-29T01:25:39.684Z,0.00
2019-01-29T01:26:39.670Z,0.00
2019-01-29T01:27:39.671Z,0.00
2019-01-29T01:28:39.652Z,0.00
2019-01-29T01:29:39.667Z,0.00
2019-01-29T01:30:39.632Z,0.00
2019-01-29T01:31:39.617Z,0.00
2019-01-29T01:32:39.607Z,0.00
2019-01-29T01:33:39.594Z,0.00
2019-01-29T01:34:39.622Z,0.00
2019-01-29T01:35:39.575Z,0.00
2019-01-29T01:36:39.561Z,0.00
2019-01-29T01:37:39.550Z,0.00
2019-01-29T01:38:39.535Z,0.00
2019-01-29T01:39:39.529Z,0.00
2019-01-29T01:40:39.534Z,0.00
2019-01-29T01:41:39.503Z,0.00
2019-01-29T01:42:39.497Z,0.00
2019-01-29T01:43:39.487Z,0.00
2019-01-29T01:44:39.536Z,0.00
2019-01-29T01:45:39.492Z,0.00
2019-01-29T01:46:39.463Z,0.00
2019-01-29T01:47:39.442Z,0.00
2019-01-29T01:48:39.429Z,0.00
2019-01-29T01:49:39.418Z,0.00
2019-01-29T01:50:39.426Z,0.00
2019-01-29T01:51:39.403Z,0.00
2019-01-29T01:52:39.393Z,0.00
2019-01-29T01:53:39.370Z,0.00
2019-01-29T01:54:39.362Z,0.00
2019-01-29T01:55:39.367Z,0.00
2019-01-29T01:56:39.336Z,0.00
2019-01-29T01:57:39.325Z,0.00
2019-01-29T01:58:39.316Z,0.00
2019-01-29T01:59:39.303Z,0.00
2019-01-29T02:00:39.367Z,0.00
2019-01-29T02:01:39.286Z,0.00
2019-01-29T02:02:39.276Z,0.00
2019-01-29T02:03:39.269Z,0.00
2019-01-29T02:04:39.251Z,0.00
2019-01-29T02:05:39.263Z,0.00
2019-01-29T02:06:39.246Z,0.00
2019-01-29T02:07:39.216Z,0.00
2019-01-29T02:08:39.210Z,0.00
2019-01-29T02:09:39.199Z,0.00
2019-01-29T02:10:39.185Z,0.00
2019-01-29T02:11:39.186Z,0.00
2019-01-29T02:12:39.172Z,0.00
2019-01-29T02:13:39.153Z,0.00
2019-01-29T02:14:39.141Z,0.00
2019-01-29T02:15:39.157Z,0.00
2019-01-29T02:16:39.157Z,0.00
2019-01-29T02:17:39.105Z,0.00
2019-01-29T02:18:39.096Z,0.00
2019-01-29T02:19:39.088Z,0.00
2019-01-29T02:20:39.071Z,0.00
2019-01-29T02:21:39.090Z,0.00
2019-01-29T02:22:39.048Z,0.00
2019-01-29T02:23:39.146Z,0.00
2019-01-29T02:24:39.026Z,0.00
2019-01-29T02:25:39.022Z,0.00
2019-01-29T02:26:39.163Z,0.00
2019-01-29T02:27:39.000Z,0.00
2019-01-29T02:28:38.981Z,0.00
2019-01-29T02:29:38.970Z,0.00
2019-01-29T02:30:38.962Z,0.00
2019-01-29T02:31:39.000Z,0.00
2019-01-29T02:32:38.936Z,0.00
2019-01-29T02:33:38.964Z,0.00
2019-01-29T02:34:38.919Z,0.00
2019-01-29T02:35:38.908Z,0.00
2019-01-29T02:36:38.907Z,0.00
2019-01-29T02:37:38.878Z,0.00
2019-01-29T02:38:38.872Z,0.00
2019-01-29T02:39:38.858Z,0.00
2019-01-29T02:40:38.846Z,0.00
2019-01-29T02:41:38.860Z,0.00
2019-01-29T02:42:38.878Z,0.00
2019-01-29T02:43:38.814Z,0.00
2019-01-29T02:44:38.802Z,0.00
2019-01-29T02:45:38.792Z,0.00
2019-01-29T02:46:38.792Z,0.00
2019-01-29T02:47:38.888Z,0.00
2019-01-29T02:48:38.760Z,0.00
2019-01-29T02:49:38.749Z,0.00
2019-01-29T02:50:38.737Z,0.00
2019-01-29T02:51:38.726Z,0.00
2019-01-29T02:52:38.731Z,0.00
2019-01-29T02:53:38.701Z,0.00
2019-01-29T02:54:38.696Z,0.00
2019-01-29T02:55:38.680Z,0.00
2019-01-29T02:56:38.674Z,0.00
2019-01-29T02:57:38.723Z,0.00
2019-01-29T02:58:38.645Z,0.00
2019-01-29T02:59:38.640Z,0.00
2019-01-29T03:00:38.629Z,0.00
2019-01-29T03:01:38.621Z,0.00
2019-01-29T03:02:38.624Z,0.00
2019-01-29T03:03:38.593Z,0.00
2019-01-29T03:04:38.581Z,0.00
2019-01-29T03:05:38.579Z,0.00
2019-01-29T03:06:38.555Z,0.00
2019-01-29T03:07:38.567Z,0.00
2019-01-29T03:08:38.539Z,0.00
2019-01-29T03:09:38.532Z,0.00
2019-01-29T03:10:38.516Z,0.00
2019-01-29T03:11:38.500Z,0.00
2019-01-29T03:12:38.510Z,0.00
2019-01-29T03:13:38.489Z,0.00
2019-01-29T03:14:38.467Z,0.00
2019-01-29T03:15:38.458Z,0.00
2019-01-29T03:16:38.452Z,0.00
2019-01-29T03:17:38.463Z,0.00
2019-01-29T03:18:38.426Z,0.00
2019-01-29T03:19:38.418Z,0.00
2019-01-29T03:20:38.407Z,0.00
2019-01-29T03:21:38.467Z,0.00
2019-01-29T03:22:38.412Z,0.00
2019-01-29T03:23:38.362Z,0.00
2019-01-29T03:24:38.353Z,0.00
2019-01-29T03:25:38.342Z,0.00
2019-01-29T03:26:38.333Z,0.00
2019-01-29T03:27:38.335Z,0.00
2019-01-29T03:28:38.327Z,0.00
2019-01-29T03:29:38.302Z,0.00
2019-01-29T03:30:38.299Z,0.00
2019-01-29T03:31:38.299Z,0.00
2019-01-29T03:32:38.271Z,0.00
2019-01-29T03:33:38.286Z,0.00
2019-01-29T03:34:38.259Z,0.00
2019-01-29T03:35:38.241Z,0.00
2019-01-29T03:36:38.228Z,0.00
2019-01-29T03:37:38.219Z,0.00
2019-01-29T03:38:38.216Z,0.00
2019-01-29T03:39:38.206Z,0.00
2019-01-29T03:40:38.180Z,0.00
2019-01-29T03:41:38.166Z,0.00
2019-01-29T03:42:38.157Z,0.00
2019-01-29T03:43:38.185Z,0.00
2019-01-29T03:44:38.134Z,0.00
2019-01-29T03:45:38.127Z,0.00
2019-01-29T03:46:38.118Z,0.00
2019-01-29T03:47:38.104Z,0.00
2019-01-29T03:48:38.112Z,0.00
2019-01-29T03:49:38.088Z,0.00
2019-01-29T03:50:38.066Z,0.00
2019-01-29T03:51:38.112Z,0.00
2019-01-29T03:52:38.050Z,0.00
2019-01-29T03:53:38.445Z,0.00
2019-01-29T03:54:38.027Z,0.00
2019-01-29T03:55:38.017Z,0.00
2019-01-29T03:56:38.017Z,0.00
2019-01-29T03:57:38.007Z,0.00
2019-01-29T03:58:37.994Z,0.00
2019-01-29T03:59:37.967Z,0.00
2019-01-29T04:00:37.964Z,0.00
2019-01-29T04:01:37.951Z,0.00
2019-01-29T04:02:37.940Z,0.00
2019-01-29T04:03:37.946Z,0.00
2019-01-29T04:04:37.916Z,0.00
2019-01-29T04:05:37.908Z,0.00
2019-01-29T04:06:37.893Z,0.00
2019-01-29T04:07:37.878Z,0.00
2019-01-29T04:08:37.894Z,0.00
2019-01-29T04:09:37.857Z,0.00
2019-01-29T04:10:37.845Z,0.00
2019-01-29T04:11:37.836Z,0.00
2019-01-29T04:12:37.834Z,0.00
2019-01-29T04:13:37.817Z,0.00
2019-01-29T04:14:37.816Z,0.00
2019-01-29T04:15:37.790Z,0.00
2019-01-29T04:16:37.780Z,0.00
2019-01-29T04:17:38.687Z,0.00
2019-01-29T04:18:37.761Z,0.00
2019-01-29T04:19:37.760Z,0.00
2019-01-29T04:20:37.737Z,0.00
2019-01-29T04:21:37.732Z,0.00
2019-01-29T04:22:37.713Z,0.00
2019-01-29T04:23:47.139Z,0.00
2019-01-29T04:24:38.703Z,0.00
2019-01-29T04:25:37.673Z,0.00
2019-01-29T04:26:37.667Z,0.00
2019-01-29T04:27:37.661Z,0.00
2019-01-29T04:28:37.654Z,0.00
2019-01-29T04:29:37.646Z,0.00
2019-01-29T04:30:37.620Z,0.00
2019-01-29T04:31:37.608Z,0.00
2019-01-29T04:32:37.598Z,0.00
2019-01-29T04:33:37.592Z,0.00
2019-01-29T04:34:37.599Z,0.00
2019-01-29T04:35:37.562Z,0.00
2019-01-29T04:36:37.558Z,0.00
2019-01-29T04:37:37.552Z,0.00
2019-01-29T04:38:37.534Z,0.00
2019-01-29T04:39:37.532Z,0.00
2019-01-29T04:40:37.510Z,0.00
2019-01-29T04:41:37.502Z,0.00
2019-01-29T04:42:37.490Z,0.00
2019-01-29T04:43:37.488Z,0.00
2019-01-29T04:44:37.489Z,0.00
2019-01-29T04:45:37.449Z,0.00
2019-01-29T04:46:37.443Z,0.00
2019-01-29T04:47:37.437Z,0.00
2019-01-29T04:48:37.419Z,0.00
2019-01-29T04:49:37.553Z,0.00
2019-01-29T04:50:37.400Z,0.00
2019-01-29T04:51:37.390Z,0.00
2019-01-29T04:52:37.384Z,0.00
2019-01-29T04:53:37.367Z,0.00
2019-01-29T04:54:37.401Z,0.00
2019-01-29T04:55:37.356Z,0.00
2019-01-29T04:56:37.331Z,0.00
2019-01-29T04:57:37.319Z,0.00
2019-01-29T04:58:37.310Z,0.00
2019-01-29T04:59:37.301Z,0.00
2019-01-29T05:00:37.306Z,0.00
2019-01-29T05:01:37.280Z,0.00
2019-01-29T05:02:37.272Z,0.00
2019-01-29T05:03:37.253Z,0.00
2019-01-29T05:04:37.239Z,0.00
2019-01-29T05:05:37.248Z,0.00
2019-01-29T05:06:37.220Z,0.00
2019-01-29T05:07:37.213Z,0.00
2019-01-29T05:08:37.197Z,0.00
2019-01-29T05:09:37.188Z,0.00
2019-01-29T05:10:37.195Z,0.00
2019-01-29T05:11:37.164Z,0.00
2019-01-29T05:12:37.173Z,0.00
2019-01-29T05:13:37.148Z,0.00
2019-01-29T05:14:37.132Z,0.00
2019-01-29T05:15:37.133Z,0.00
2019-01-29T05:16:37.114Z,0.00
2019-01-29T05:17:37.099Z,0.00
2019-01-29T05:18:37.090Z,0.00
2019-01-29T05:19:37.074Z,0.00
2019-01-29T05:20:37.080Z,0.00
2019-01-29T05:21:37.057Z,0.00
2019-01-29T05:22:37.042Z,0.00
2019-01-29T05:23:37.036Z,0.00
2019-01-29T05:24:37.019Z,0.00
2019-01-29T05:25:37.025Z,0.00
2019-01-29T05:26:36.998Z,0.00
2019-01-29T05:27:36.984Z,0.00
2019-01-29T05:28:36.982Z,0.00
2019-01-29T05:29:36.962Z,0.00
2019-01-29T05:30:36.977Z,0.00
2019-01-29T05:31:36.939Z,0.00
2019-01-29T05:32:36.947Z,0.00
2019-01-29T05:33:36.926Z,0.00
2019-01-29T05:34:36.921Z,0.00
2019-01-29T05:35:36.960Z,0.00
2019-01-29T05:36:36.889Z,0.00
2019-01-29T05:37:36.874Z,0.00
2019-01-29T05:38:36.860Z,0.00
2019-01-29T05:39:36.851Z,0.00
2019-01-29T05:40:36.844Z,0.00
2019-01-29T05:41:36.864Z,0.00
2019-01-29T05:42:36.816Z,0.00
2019-01-29T05:43:36.814Z,0.00
2019-01-29T05:44:36.801Z,0.00
2019-01-29T05:45:36.788Z,0.00
2019-01-29T05:46:36.860Z,0.00
2019-01-29T05:47:36.767Z,0.00
2019-01-29T05:48:36.754Z,0.00
2019-01-29T05:49:36.740Z,0.00
2019-01-29T05:50:36.733Z,0.00
2019-01-29T05:51:36.741Z,0.00
2019-01-29T05:52:36.710Z,0.00
2019-01-29T05:53:36.696Z,0.00
2019-01-29T05:54:36.686Z,0.00
2019-01-29T05:55:36.678Z,0.00
2019-01-29T05:56:36.686Z,0.00
2019-01-29T05:57:36.664Z,0.00
2019-01-29T05:58:36.680Z,0.00
2019-01-29T05:59:36.632Z,0.00
2019-01-29T06:00:36.620Z,0.00
2019-01-29T06:01:36.644Z,0.00
2019-01-29T06:02:36.601Z,0.00
2019-01-29T06:03:36.587Z,0.00
2019-01-29T06:04:36.574Z,0.00
2019-01-29T06:05:36.569Z,0.00
2019-01-29T06:06:36.595Z,0.00
2019-01-29T06:07:36.549Z,0.00
2019-01-29T06:08:36.554Z,0.00
2019-01-29T06:09:36.523Z,0.00
2019-01-29T06:10:36.510Z,0.00
2019-01-29T06:11:36.518Z,0.00
2019-01-29T06:12:36.534Z,0.00
2019-01-29T06:13:36.481Z,0.00
2019-01-29T06:14:36.464Z,0.00
2019-01-29T06:15:36.451Z,0.00
2019-01-29T06:16:36.478Z,0.00
2019-01-29T06:17:36.435Z,0.00
2019-01-29T06:18:36.422Z,0.00
2019-01-29T06:19:36.406Z,0.00
2019-01-29T06:20:36.404Z,4.00
2019-01-29T06:21:36.383Z,4.00
2019-01-29T06:22:36.396Z,0.00
2019-01-29T06:23:36.376Z,4.00
2019-01-29T06:24:36.356Z,0.00
2019-01-29T06:25:36.344Z,4.00
2019-01-29T06:26:36.333Z,4.00
2019-01-29T06:27:36.353Z,4.00
2019-01-29T06:28:36.325Z,8.00
2019-01-29T06:29:36.298Z,8.00
2019-01-29T06:30:36.291Z,8.00
2019-01-29T06:31:36.293Z,12.00
2019-01-29T06:32:36.300Z,12.00
2019-01-29T06:33:36.255Z,20.00
2019-01-29T06:34:36.315Z,20.00
2019-01-29T06:35:36.235Z,24.00
2019-01-29T06:36:36.225Z,28.00
2019-01-29T06:37:36.236Z,32.00
2019-01-29T06:38:36.198Z,36.00
2019-01-29T06:39:36.185Z,36.00
2019-01-29T06:40:36.185Z,44.00
2019-01-29T06:41:36.166Z,52.00
2019-01-29T06:42:36.169Z,56.00
2019-01-29T06:43:36.143Z,64.00
2019-01-29T06:44:36.130Z,68.00
2019-01-29T06:45:36.119Z,76.00
2019-01-29T06:46:36.113Z,84.00
2019-01-29T06:47:36.117Z,88.00
2019-01-29T06:48:36.086Z,96.00
2019-01-29T06:49:36.075Z,104.00
2019-01-29T06:50:36.069Z,116.00
2019-01-29T06:51:36.051Z,124.00
2019-01-29T06:52:36.061Z,136.00
2019-01-29T06:53:36.042Z,148.00
2019-01-29T06:54:36.031Z,164.00
2019-01-29T06:55:36.010Z,176.00
2019-01-29T06:56:35.996Z,192.00
2019-01-29T06:57:36.008Z,208.00
2019-01-29T06:58:36.000Z,224.00
2019-01-29T06:59:35.972Z,240.00
2019-01-29T07:00:35.966Z,260.00
2019-01-29T07:01:35.942Z,276.00
2019-01-29T07:02:35.933Z,296.00
2019-01-29T07:03:35.943Z,304.00
2019-01-29T07:04:35.920Z,312.00
2019-01-29T07:05:35.904Z,328.00
2019-01-29T07:06:35.894Z,344.00
2019-01-29T07:07:35.881Z,352.00
2019-01-29T07:08:35.884Z,360.00
2019-01-29T07:09:35.860Z,376.00
2019-01-29T07:10:35.846Z,380.00
2019-01-29T07:11:35.838Z,412.00
2019-01-29T07:12:35.824Z,420.00
2019-01-29T07:13:35.825Z,404.00
2019-01-29T07:14:35.805Z,436.00
2019-01-29T07:15:35.789Z,476.00
2019-01-29T07:16:35.783Z,520.00
2019-01-29T07:17:35.769Z,556.00
2019-01-29T07:18:35.770Z,508.00
2019-01-29T07:19:35.744Z,496.00
2019-01-29T07:20:35.738Z,544.00
2019-01-29T07:21:35.726Z,512.00
2019-01-29T07:22:35.716Z,528.00
2019-01-29T07:23:35.726Z,552.00
2019-01-29T07:24:42.601Z,528.00
2019-01-29T07:25:36.680Z,616.00
2019-01-29T07:26:35.673Z,616.00
2019-01-29T07:27:35.659Z,560.00
2019-01-29T07:28:35.669Z,500.00
2019-01-29T07:29:35.632Z,484.00
2019-01-29T07:30:35.627Z,440.00
2019-01-29T07:31:35.612Z,480.00
2019-01-29T07:32:35.610Z,540.00
2019-01-29T07:33:35.618Z,600.00
2019-01-29T07:34:35.583Z,508.00
2019-01-29T07:35:35.565Z,644.00
2019-01-29T07:36:35.552Z,728.00
2019-01-29T07:37:35.549Z,988.00
2019-01-29T07:38:35.567Z,1008.00
2019-01-29T07:39:35.532Z,1020.00
2019-01-29T07:40:35.519Z,992.00
2019-01-29T07:41:35.504Z,1172.00
2019-01-29T07:42:35.490Z,1072.00
2019-01-29T07:43:35.478Z,1100.00
2019-01-29T07:44:35.487Z,1276.00
2019-01-29T07:45:35.455Z,1308.00
2019-01-29T07:46:35.444Z,1224.00
2019-01-29T07:47:35.434Z,1548.00
2019-01-29T07:48:35.422Z,1504.00
2019-01-29T07:49:35.438Z,1292.00
2019-01-29T07:50:35.406Z,1332.00
2019-01-29T07:51:35.398Z,1596.00
2019-01-29T07:52:35.400Z,1504.00
2019-01-29T07:53:35.375Z,1480.00
2019-01-29T07:54:35.387Z,1408.00
2019-01-29T07:55:35.343Z,1384.00
2019-01-29T07:56:35.340Z,1492.00
2019-01-29T07:57:35.347Z,2128.00
2019-01-29T07:58:35.312Z,2196.00
2019-01-29T07:59:35.323Z,2380.00
2019-01-29T08:00:35.288Z,2760.00
2019-01-29T08:01:35.279Z,2360.00
2019-01-29T08:02:35.271Z,2340.00
2019-01-29T08:03:38.116Z,2156.00
2019-01-29T08:04:35.278Z,2152.00
2019-01-29T08:05:35.235Z,2496.00
2019-01-29T08:06:35.230Z,2464.00
2019-01-29T08:07:35.216Z,2452.00
2019-01-29T08:08:35.223Z,2756.00
2019-01-29T08:09:35.231Z,2784.00
2019-01-29T08:10:35.188Z,2592.00
2019-01-29T08:11:35.168Z,2364.00
2019-01-29T08:12:35.161Z,2488.00
2019-01-29T08:13:35.149Z,2396.00
2019-01-29T08:14:35.156Z,2564.00
2019-01-29T08:15:35.125Z,2688.00
2019-01-29T08:16:35.131Z,2732.00
2019-01-29T08:17:35.099Z,2308.00
2019-01-29T08:18:35.093Z,2292.00
2019-01-29T08:19:35.119Z,1912.00
2019-01-29T08:20:35.072Z,1848.00
2019-01-29T08:21:35.058Z,2184.00
2019-01-29T08:22:35.105Z,2252.00
2019-01-29T08:23:35.042Z,2996.00
2019-01-29T08:24:35.036Z,3772.00
2019-01-29T08:25:35.047Z,3924.00
2019-01-29T08:26:35.006Z,2748.00
2019-01-29T08:27:34.992Z,2220.00
2019-01-29T08:28:34.986Z,1940.00
2019-01-29T08:29:34.969Z,1852.00
2019-01-29T08:30:34.978Z,1476.00
2019-01-29T08:31:34.950Z,1492.00
2019-01-29T08:32:34.938Z,1292.00
2019-01-29T08:33:34.936Z,1952.00
2019-01-29T08:34:34.912Z,2856.00
2019-01-29T08:35:34.919Z,2312.00
2019-01-29T08:36:34.902Z,1772.00
2019-01-29T08:37:34.992Z,1788.00
2019-01-29T08:38:34.873Z,1948.00
2019-01-29T08:39:34.867Z,3384.00
2019-01-29T08:40:34.878Z,3432.00
2019-01-29T08:41:34.846Z,2856.00
2019-01-29T08:42:34.829Z,2556.00
2019-01-29T08:43:34.815Z,2220.00
2019-01-29T08:44:34.804Z,1920.00
2019-01-29T08:45:34.814Z,2584.00
2019-01-29T08:46:34.803Z,2864.00
2019-01-29T08:47:34.771Z,2460.00
2019-01-29T08:48:34.763Z,1720.00
2019-01-29T08:49:34.758Z,2052.00
2019-01-29T08:50:34.757Z,1392.00
2019-01-29T08:51:34.786Z,1392.00
2019-01-29T08:52:34.720Z,1592.00
2019-01-29T08:53:34.702Z,2304.00
2019-01-29T08:54:34.783Z,1808.00
2019-01-29T08:55:34.721Z,1856.00
2019-01-29T08:56:34.670Z,2396.00
2019-01-29T08:57:34.658Z,2516.00
2019-01-29T08:58:34.654Z,1820.00
2019-01-29T08:59:34.640Z,2796.00
2019-01-29T09:00:34.638Z,3408.00
2019-01-29T09:01:34.651Z,3152.00
2019-01-29T09:02:34.615Z,4456.00
2019-01-29T09:03:34.602Z,2876.00
2019-01-29T09:04:34.586Z,1780.00
2019-01-29T09:05:34.597Z,1816.00
2019-01-29T09:06:34.579Z,2068.00
2019-01-29T09:07:34.546Z,2172.00
2019-01-29T09:08:34.537Z,2308.00
2019-01-29T09:09:34.532Z,2952.00
2019-01-29T09:10:34.510Z,2080.00
2019-01-29T09:11:34.520Z,2320.00
2019-01-29T09:12:34.499Z,2724.00
2019-01-29T09:13:34.484Z,2904.00
2019-01-29T09:14:34.484Z,3312.00
2019-01-29T09:15:34.462Z,2888.00
2019-01-29T09:16:34.475Z,2888.00
2019-01-29T09:17:34.458Z,2712.00
2019-01-29T09:18:34.426Z,2372.00
2019-01-29T09:19:34.418Z,2060.00
2019-01-29T09:20:34.402Z,1876.00
2019-01-29T09:21:34.428Z,2176.00
2019-01-29T09:22:34.385Z,2428.00
2019-01-29T09:23:34.376Z,3080.00
2019-01-29T09:24:34.353Z,3316.00
2019-01-29T09:25:34.355Z,2848.00
2019-01-29T09:26:34.346Z,2544.00
2019-01-29T09:27:34.342Z,2704.00
2019-01-29T09:28:34.330Z,2928.00
2019-01-29T09:29:34.304Z,3436.00
2019-01-29T09:30:34.293Z,3436.00
2019-01-29T09:31:34.290Z,3008.00
2019-01-29T09:32:34.287Z,3220.00
2019-01-29T09:33:34.260Z,2752.00
2019-01-29T09:34:34.254Z,3008.00
2019-01-29T09:35:34.242Z,4116.00
2019-01-29T09:36:34.227Z,4020.00
2019-01-29T09:37:34.234Z,3348.00
2019-01-29T09:38:34.202Z,3548.00
2019-01-29T09:39:34.197Z,4028.00
2019-01-29T09:40:34.186Z,4020.00
2019-01-29T09:41:34.192Z,3004.00
2019-01-29T09:42:34.158Z,2636.00
2019-01-29T09:43:34.152Z,2988.00
2019-01-29T09:44:34.137Z,2420.00
2019-01-29T09:45:34.127Z,2396.00
2019-01-29T09:46:34.140Z,2436.00
2019-01-29T09:47:34.124Z,2832.00
2019-01-29T09:48:34.092Z,2324.00
2019-01-29T09:49:34.080Z,3980.00
2019-01-29T09:50:34.068Z,4568.00
2019-01-29T09:51:34.080Z,4300.00
2019-01-29T09:52:34.068Z,3756.00
2019-01-29T09:53:34.042Z,4732.00
2019-01-29T09:54:34.026Z,4280.00
2019-01-29T09:55:34.022Z,5260.00
2019-01-29T09:56:34.007Z,4024.00
2019-01-29T09:57:34.010Z,2908.00
2019-01-29T09:58:33.979Z,3116.00
2019-01-29T09:59:33.971Z,2924.00
2019-01-29T10:00:33.967Z,3492.00
2019-01-29T10:01:33.953Z,3260.00
2019-01-29T10:02:33.957Z,4040.00
2019-01-29T10:03:33.934Z,2844.00
2019-01-29T10:04:33.951Z,3088.00
2019-01-29T10:05:33.905Z,3784.00
2019-01-29T10:06:33.896Z,3428.00
2019-01-29T10:07:33.904Z,2728.00
2019-01-29T10:08:33.898Z,2524.00
2019-01-29T10:09:33.861Z,2456.00
2019-01-29T10:10:33.853Z,2804.00
2019-01-29T10:11:33.835Z,2984.00
2019-01-29T10:12:33.872Z,2384.00
2019-01-29T10:13:33.862Z,2380.00
2019-01-29T10:14:33.824Z,2268.00
2019-01-29T10:15:33.813Z,2416.00
2019-01-29T10:16:33.783Z,3512.00
2019-01-29T10:17:33.784Z,2908.00
2019-01-29T10:18:33.758Z,3304.00
2019-01-29T10:19:33.744Z,3012.00
2019-01-29T10:20:33.738Z,3408.00
2019-01-29T10:21:33.726Z,3344.00
2019-01-29T10:22:33.732Z,3720.00
2019-01-29T10:23:33.704Z,4044.00
2019-01-29T10:24:33.688Z,4412.00
2019-01-29T10:25:37.810Z,2840.00
2019-01-29T10:26:33.672Z,3036.00
2019-01-29T10:27:33.680Z,4220.00
2019-01-29T10:28:33.659Z,3664.00
2019-01-29T10:29:33.676Z,2424.00
2019-01-29T10:30:33.674Z,3048.00
2019-01-29T10:31:33.633Z,3688.00
2019-01-29T10:32:33.616Z,3220.00
2019-01-29T10:33:33.594Z,2684.00
2019-01-29T10:34:33.601Z,2792.00
2019-01-29T10:35:33.570Z,3164.00
2019-01-29T10:36:33.595Z,3368.00
2019-01-29T10:37:33.553Z,3216.00
2019-01-29T10:38:33.577Z,2916.00
2019-01-29T10:39:33.548Z,3288.00
2019-01-29T10:40:33.524Z,2988.00
2019-01-29T10:41:33.505Z,3356.00
2019-01-29T10:42:33.499Z,4144.00
2019-01-29T10:43:33.510Z,3988.00
2019-01-29T10:44:33.469Z,3508.00
2019-01-29T10:45:33.455Z,3764.00
2019-01-29T10:46:33.456Z,3412.00
2019-01-29T10:47:33.439Z,4064.00
2019-01-29T10:48:33.461Z,3908.00
2019-01-29T10:49:33.417Z,3872.00
2019-01-29T10:50:33.436Z,3844.00
2019-01-29T10:51:33.398Z,4072.00
2019-01-29T10:52:33.384Z,4132.00
2019-01-29T10:53:33.397Z,4704.00
2019-01-29T10:54:33.359Z,4792.00
2019-01-29T10:55:33.365Z,5684.00
2019-01-29T10:56:33.339Z,5256.00
2019-01-29T10:57:33.328Z,4988.00
2019-01-29T10:58:33.345Z,5200.00
2019-01-29T10:59:33.305Z,5228.00
2019-01-29T11:00:33.296Z,5852.00
2019-01-29T11:01:33.282Z,4756.00
2019-01-29T11:02:33.272Z,4336.00
2019-01-29T11:03:33.278Z,3960.00
2019-01-29T11:04:33.264Z,3900.00
2019-01-29T11:05:33.619Z,4040.00
2019-01-29T11:06:33.230Z,3868.00
2019-01-29T11:07:33.218Z,4932.00
2019-01-29T11:08:33.226Z,4288.00
2019-01-29T11:09:33.194Z,4032.00
2019-01-29T11:10:33.211Z,4060.00
2019-01-29T11:11:33.183Z,4004.00
2019-01-29T11:12:33.159Z,4372.00
2019-01-29T11:13:33.157Z,3600.00
2019-01-29T11:14:33.199Z,2604.00
2019-01-29T11:15:33.133Z,2728.00
2019-01-29T11:16:33.110Z,2900.00
2019-01-29T11:17:33.107Z,3492.00
2019-01-29T11:18:33.093Z,4052.00
2019-01-29T11:19:34.482Z,3780.00
2019-01-29T11:20:33.095Z,3080.00
2019-01-29T11:21:33.063Z,3196.00
2019-01-29T11:22:33.072Z,3824.00
2019-01-29T11:23:33.053Z,4580.00
2019-01-29T11:24:33.043Z,4696.00
2019-01-29T11:25:33.019Z,3276.00
2019-01-29T11:26:33.002Z,3556.00
2019-01-29T11:27:32.996Z,3932.00
2019-01-29T11:28:32.979Z,3644.00
2019-01-29T11:29:33.016Z,3680.00
2019-01-29T11:30:32.960Z,2868.00
2019-01-29T11:31:32.947Z,3728.00
2019-01-29T11:32:32.974Z,3128.00
2019-01-29T11:33:32.932Z,2668.00
2019-01-29T11:34:32.957Z,2644.00
2019-01-29T11:35:32.921Z,2604.00
2019-01-29T11:36:32.906Z,2644.00
2019-01-29T11:37:32.881Z,3580.00
2019-01-29T11:38:32.868Z,3764.00
2019-01-29T11:39:32.882Z,3192.00
2019-01-29T11:40:32.866Z,2880.00
2019-01-29T11:41:32.860Z,2776.00
2019-01-29T11:42:32.824Z,2908.00
2019-01-29T11:43:32.821Z,3400.00
2019-01-29T11:44:32.823Z,3868.00
2019-01-29T11:45:32.794Z,3796.00
2019-01-29T11:46:32.796Z,4588.00
2019-01-29T11:47:32.779Z,3272.00
2019-01-29T11:48:32.758Z,2712.00
2019-01-29T11:49:33.140Z,3044.00
2019-01-29T11:50:32.746Z,3092.00
2019-01-29T11:51:32.730Z,3680.00
2019-01-29T11:52:32.713Z,3940.00
2019-01-29T11:53:32.700Z,3656.00
2019-01-29T11:54:32.715Z,2936.00
2019-01-29T11:55:32.688Z,3384.00
2019-01-29T11:56:32.674Z,4040.00
2019-01-29T11:57:32.679Z,3948.00
2019-01-29T11:58:32.653Z,3220.00
2019-01-29T11:59:32.636Z,2536.00
2019-01-29T12:00:32.756Z,2616.00
2019-01-29T12:01:32.631Z,1908.00
2019-01-29T12:02:32.625Z,1884.00
2019-01-29T12:03:32.587Z,1832.00
2019-01-29T12:04:32.595Z,1796.00
2019-01-29T12:05:32.588Z,1784.00
2019-01-29T12:06:32.566Z,2136.00
2019-01-29T12:07:32.551Z,3060.00
2019-01-29T12:08:32.538Z,2784.00
2019-01-29T12:09:32.558Z,2496.00
2019-01-29T12:10:32.582Z,2200.00
2019-01-29T12:11:32.507Z,2128.00
2019-01-29T12:12:32.505Z,2140.00
2019-01-29T12:13:32.489Z,2312.00
2019-01-29T12:14:32.474Z,2736.00
2019-01-29T12:15:32.523Z,2496.00
2019-01-29T12:16:32.450Z,2276.00
2019-01-29T12:17:32.440Z,2496.00
2019-01-29T12:18:32.430Z,2520.00
2019-01-29T12:19:33.133Z,2832.00
2019-01-29T12:20:32.430Z,3152.00
2019-01-29T12:21:32.455Z,2948.00
2019-01-29T12:22:32.386Z,2824.00
2019-01-29T12:23:32.379Z,3572.00
2019-01-29T12:24:32.358Z,3376.00
2019-01-29T12:25:32.375Z,3896.00
2019-01-29T12:26:32.346Z,3664.00
2019-01-29T12:27:32.321Z,3208.00
2019-01-29T12:28:32.322Z,3076.00
2019-01-29T12:29:32.304Z,3152.00
2019-01-29T12:30:32.330Z,4224.00
2019-01-29T12:31:32.331Z,6112.00
2019-01-29T12:32:32.286Z,6180.00
2019-01-29T12:33:32.264Z,5704.00
2019-01-29T12:34:32.278Z,5124.00
2019-01-29T12:35:32.259Z,4868.00
2019-01-29T12:36:32.226Z,4668.00
2019-01-29T12:37:32.230Z,4460.00
2019-01-29T12:38:32.199Z,3972.00
2019-01-29T12:39:32.194Z,4336.00
2019-01-29T12:40:32.200Z,4076.00
2019-01-29T12:41:32.178Z,5680.00
2019-01-29T12:42:32.164Z,7036.00
2019-01-29T12:43:32.153Z,7852.00